sensor_id;sensor_type;location;lat;lon;timestamp;P1;durP1;ratioP1;P2;durP2;ratioP2
26181;SDS011;13927;51.534;11.866;2023-04-25T00:01:31;7.47;;;5.93;;
26181;SDS011;13927;51.534;11.866;2023-04-25T00:04:00;8.13;;;6.47;;
26181;SDS011;13927;51.534;11.866;2023-04-25T00:06:26;10.07;;;6.97;;
26181;SDS011;13927;51.534;11.866;2023-04-25T00:08:52;10.07;;;7.45;;
26181;SDS011;13927;51.534;11.866;2023-04-25T00:11:18;8.35;;;6.60;;
26181;SDS011;13927;51.534;11.866;2023-04-25T00:13:44;9.90;;;7.13;;
26181;SDS011;13927;51.534;11.866;2023-04-25T00:16:11;10.77;;;7.50;;
26181;SDS011;13927;51.534;11.866;2023-04-25T00:18:38;10.65;;;8.00;;
26181;SDS011;13927;51.534;11.866;2023-04-25T00:21:04;11.10;;;7.90;;
26181;SDS011;13927;51.534;11.866;2023-04-25T00:23:31;12.18;;;8.13;;
26181;SDS011;13927;51.534;11.866;2023-04-25T00:25:57;11.05;;;8.15;;
26181;SDS011;13927;51.534;11.866;2023-04-25T00:28:22;10.90;;;7.90;;
26181;SDS011;13927;51.534;11.866;2023-04-25T00:30:49;10.30;;;7.35;;
26181;SDS011;13927;51.534;11.866;2023-04-25T00:33:15;9.10;;;7.03;;
26181;SDS011;13927;51.534;11.866;2023-04-25T00:35:41;9.02;;;6.80;;
26181;SDS011;13927;51.534;11.866;2023-04-25T00:38:07;12.25;;;7.55;;
26181;SDS011;13927;51.534;11.866;2023-04-25T00:40:33;12.02;;;7.95;;
26181;SDS011;13927;51.534;11.866;2023-04-25T00:42:59;9.73;;;7.50;;
26181;SDS011;13927;51.534;11.866;2023-04-25T00:45:27;9.35;;;7.80;;
26181;SDS011;13927;51.534;11.866;2023-04-25T00:47:57;12.30;;;8.00;;
26181;SDS011;13927;51.534;11.866;2023-04-25T00:50:23;10.20;;;7.63;;
26181;SDS011;13927;51.534;11.866;2023-04-25T00:52:49;10.98;;;7.45;;
26181;SDS011;13927;51.534;11.866;2023-04-25T00:55:16;8.68;;;7.22;;
26181;SDS011;13927;51.534;11.866;2023-04-25T00:57:42;9.70;;;8.00;;
26181;SDS011;13927;51.534;11.866;2023-04-25T01:00:08;10.98;;;8.15;;
26181;SDS011;13927;51.534;11.866;2023-04-25T01:02:35;9.73;;;7.63;;
26181;SDS011;13927;51.534;11.866;2023-04-25T01:05:02;10.30;;;8.05;;
26181;SDS011;13927;51.534;11.866;2023-04-25T01:07:28;12.20;;;8.25;;
26181;SDS011;13927;51.534;11.866;2023-04-25T01:09:55;10.73;;;8.07;;
26181;SDS011;13927;51.534;11.866;2023-04-25T01:12:21;10.55;;;8.25;;
26181;SDS011;13927;51.534;11.866;2023-04-25T01:14:48;11.05;;;8.15;;
26181;SDS011;13927;51.534;11.866;2023-04-25T01:17:13;10.82;;;8.23;;
26181;SDS011;13927;51.534;11.866;2023-04-25T01:19:40;11.93;;;8.57;;
26181;SDS011;13927;51.534;11.866;2023-04-25T01:22:05;12.23;;;8.23;;
26181;SDS011;13927;51.534;11.866;2023-04-25T01:24:32;13.90;;;8.40;;
26181;SDS011;13927;51.534;11.866;2023-04-25T01:26:58;13.65;;;9.75;;
26181;SDS011;13927;51.534;11.866;2023-04-25T01:29:26;11.50;;;8.25;;
26181;SDS011;13927;51.534;11.866;2023-04-25T01:31:53;14.68;;;9.57;;
26181;SDS011;13927;51.534;11.866;2023-04-25T01:34:19;14.35;;;9.48;;
26181;SDS011;13927;51.534;11.866;2023-04-25T01:36:47;13.93;;;9.98;;
26181;SDS011;13927;51.534;11.866;2023-04-25T01:39:15;13.65;;;9.13;;
26181;SDS011;13927;51.534;11.866;2023-04-25T01:41:42;14.48;;;10.07;;
26181;SDS011;13927;51.534;11.866;2023-04-25T01:44:08;15.35;;;8.45;;
26181;SDS011;13927;51.534;11.866;2023-04-25T01:46:34;13.48;;;8.50;;
26181;SDS011;13927;51.534;11.866;2023-04-25T01:49:00;13.90;;;9.48;;
26181;SDS011;13927;51.534;11.866;2023-04-25T01:51:26;12.35;;;8.50;;
26181;SDS011;13927;51.534;11.866;2023-04-25T01:53:52;15.77;;;10.10;;
26181;SDS011;13927;51.534;11.866;2023-04-25T01:56:18;10.23;;;7.95;;
26181;SDS011;13927;51.534;11.866;2023-04-25T01:58:45;14.15;;;8.20;;
26181;SDS011;13927;51.534;11.866;2023-04-25T02:01:10;12.00;;;8.38;;
26181;SDS011;13927;51.534;11.866;2023-04-25T02:03:36;11.35;;;8.20;;
26181;SDS011;13927;51.534;11.866;2023-04-25T02:06:02;10.98;;;7.90;;
26181;SDS011;13927;51.534;11.866;2023-04-25T02:08:28;11.00;;;8.10;;
26181;SDS011;13927;51.534;11.866;2023-04-25T02:10:55;10.77;;;7.22;;
26181;SDS011;13927;51.534;11.866;2023-04-25T02:13:20;12.57;;;8.48;;
26181;SDS011;13927;51.534;11.866;2023-04-25T02:15:46;12.85;;;8.25;;
26181;SDS011;13927;51.534;11.866;2023-04-25T02:18:12;13.80;;;8.43;;
26181;SDS011;13927;51.534;11.866;2023-04-25T02:20:37;13.93;;;7.70;;
26181;SDS011;13927;51.534;11.866;2023-04-25T02:23:03;10.88;;;7.15;;
26181;SDS011;13927;51.534;11.866;2023-04-25T02:25:29;10.93;;;7.60;;
26181;SDS011;13927;51.534;11.866;2023-04-25T02:27:55;11.00;;;7.35;;
26181;SDS011;13927;51.534;11.866;2023-04-25T02:30:21;10.40;;;7.03;;
26181;SDS011;13927;51.534;11.866;2023-04-25T02:32:46;13.75;;;6.78;;
26181;SDS011;13927;51.534;11.866;2023-04-25T02:35:12;8.88;;;6.53;;
26181;SDS011;13927;51.534;11.866;2023-04-25T02:37:38;8.23;;;6.00;;
26181;SDS011;13927;51.534;11.866;2023-04-25T02:40:05;11.32;;;6.35;;
26181;SDS011;13927;51.534;11.866;2023-04-25T02:42:32;9.05;;;5.20;;
26181;SDS011;13927;51.534;11.866;2023-04-25T02:44:57;9.82;;;5.97;;
26181;SDS011;13927;51.534;11.866;2023-04-25T02:47:23;8.52;;;5.90;;
26181;SDS011;13927;51.534;11.866;2023-04-25T02:49:49;9.55;;;5.90;;
26181;SDS011;13927;51.534;11.866;2023-04-25T02:52:15;10.00;;;6.60;;
26181;SDS011;13927;51.534;11.866;2023-04-25T02:54:41;8.68;;;6.22;;
26181;SDS011;13927;51.534;11.866;2023-04-25T02:57:07;9.30;;;6.10;;
26181;SDS011;13927;51.534;11.866;2023-04-25T02:59:32;8.95;;;6.25;;
26181;SDS011;13927;51.534;11.866;2023-04-25T03:01:58;9.23;;;6.63;;
26181;SDS011;13927;51.534;11.866;2023-04-25T03:04:25;9.77;;;6.88;;
26181;SDS011;13927;51.534;11.866;2023-04-25T03:06:51;10.65;;;6.97;;
26181;SDS011;13927;51.534;11.866;2023-04-25T03:09:18;10.40;;;6.07;;
26181;SDS011;13927;51.534;11.866;2023-04-25T03:11:44;9.68;;;6.00;;
26181;SDS011;13927;51.534;11.866;2023-04-25T03:14:12;10.00;;;6.28;;
26181;SDS011;13927;51.534;11.866;2023-04-25T03:16:38;13.65;;;6.47;;
26181;SDS011;13927;51.534;11.866;2023-04-25T03:19:04;12.25;;;6.78;;
26181;SDS011;13927;51.534;11.866;2023-04-25T03:21:31;10.02;;;6.72;;
26181;SDS011;13927;51.534;11.866;2023-04-25T03:23:58;12.80;;;7.32;;
26181;SDS011;13927;51.534;11.866;2023-04-25T03:26:27;11.05;;;6.35;;
26181;SDS011;13927;51.534;11.866;2023-04-25T03:28:54;11.15;;;6.40;;
26181;SDS011;13927;51.534;11.866;2023-04-25T03:31:19;13.07;;;6.90;;
26181;SDS011;13927;51.534;11.866;2023-04-25T03:33:47;11.70;;;6.60;;
26181;SDS011;13927;51.534;11.866;2023-04-25T03:36:14;9.52;;;6.28;;
26181;SDS011;13927;51.534;11.866;2023-04-25T03:38:39;11.13;;;6.68;;
26181;SDS011;13927;51.534;11.866;2023-04-25T03:41:06;13.82;;;6.97;;
26181;SDS011;13927;51.534;11.866;2023-04-25T03:43:32;11.02;;;6.28;;
26181;SDS011;13927;51.534;11.866;2023-04-25T03:45:58;12.93;;;6.28;;
26181;SDS011;13927;51.534;11.866;2023-04-25T03:48:25;11.98;;;6.53;;
26181;SDS011;13927;51.534;11.866;2023-04-25T03:50:51;12.93;;;6.53;;
26181;SDS011;13927;51.534;11.866;2023-04-25T03:53:18;13.88;;;6.18;;
26181;SDS011;13927;51.534;11.866;2023-04-25T03:55:44;9.60;;;5.68;;
26181;SDS011;13927;51.534;11.866;2023-04-25T03:58:10;12.50;;;6.93;;
26181;SDS011;13927;51.534;11.866;2023-04-25T04:00:35;12.50;;;6.85;;
26181;SDS011;13927;51.534;11.866;2023-04-25T04:03:01;12.05;;;5.57;;
26181;SDS011;13927;51.534;11.866;2023-04-25T04:05:27;9.60;;;5.63;;
26181;SDS011;13927;51.534;11.866;2023-04-25T04:07:53;13.02;;;6.30;;
26181;SDS011;13927;51.534;11.866;2023-04-25T04:10:20;9.35;;;5.63;;
26181;SDS011;13927;51.534;11.866;2023-04-25T04:12:46;17.00;;;6.70;;
26181;SDS011;13927;51.534;11.866;2023-04-25T04:15:12;8.30;;;6.05;;
26181;SDS011;13927;51.534;11.866;2023-04-25T04:17:38;13.32;;;6.82;;
26181;SDS011;13927;51.534;11.866;2023-04-25T04:20:04;9.30;;;6.15;;
26181;SDS011;13927;51.534;11.866;2023-04-25T04:22:31;12.32;;;6.15;;
26181;SDS011;13927;51.534;11.866;2023-04-25T04:24:57;13.18;;;6.82;;
26181;SDS011;13927;51.534;11.866;2023-04-25T04:27:22;13.25;;;7.22;;
26181;SDS011;13927;51.534;11.866;2023-04-25T04:29:48;15.13;;;7.65;;
26181;SDS011;13927;51.534;11.866;2023-04-25T04:32:16;12.20;;;6.75;;
26181;SDS011;13927;51.534;11.866;2023-04-25T04:34:42;16.85;;;7.35;;
26181;SDS011;13927;51.534;11.866;2023-04-25T04:37:08;10.40;;;7.13;;
26181;SDS011;13927;51.534;11.866;2023-04-25T04:39:35;15.45;;;6.45;;
26181;SDS011;13927;51.534;11.866;2023-04-25T04:42:02;9.07;;;6.28;;
26181;SDS011;13927;51.534;11.866;2023-04-25T04:44:29;12.07;;;7.00;;
26181;SDS011;13927;51.534;11.866;2023-04-25T04:46:57;12.82;;;6.82;;
26181;SDS011;13927;51.534;11.866;2023-04-25T04:49:24;12.73;;;7.13;;
26181;SDS011;13927;51.534;11.866;2023-04-25T04:51:49;13.25;;;7.18;;
26181;SDS011;13927;51.534;11.866;2023-04-25T04:54:15;11.52;;;7.13;;
26181;SDS011;13927;51.534;11.866;2023-04-25T04:56:41;12.75;;;7.95;;
26181;SDS011;13927;51.534;11.866;2023-04-25T04:59:07;16.33;;;7.50;;
26181;SDS011;13927;51.534;11.866;2023-04-25T05:01:33;12.15;;;7.70;;
26181;SDS011;13927;51.534;11.866;2023-04-25T05:04:02;13.23;;;7.20;;
26181;SDS011;13927;51.534;11.866;2023-04-25T05:06:28;13.10;;;8.27;;
26181;SDS011;13927;51.534;11.866;2023-04-25T05:08:55;19.67;;;8.90;;
26181;SDS011;13927;51.534;11.866;2023-04-25T05:11:21;12.05;;;7.45;;
26181;SDS011;13927;51.534;11.866;2023-04-25T05:13:49;11.80;;;7.72;;
26181;SDS011;13927;51.534;11.866;2023-04-25T05:16:18;12.18;;;7.25;;
26181;SDS011;13927;51.534;11.866;2023-04-25T05:18:45;16.95;;;8.23;;
26181;SDS011;13927;51.534;11.866;2023-04-25T05:21:11;14.85;;;8.60;;
26181;SDS011;13927;51.534;11.866;2023-04-25T05:23:38;18.40;;;9.63;;
26181;SDS011;13927;51.534;11.866;2023-04-25T05:26:04;14.55;;;9.65;;
26181;SDS011;13927;51.534;11.866;2023-04-25T05:28:30;14.85;;;9.57;;
26181;SDS011;13927;51.534;11.866;2023-04-25T05:30:56;17.20;;;9.25;;
26181;SDS011;13927;51.534;11.866;2023-04-25T05:33:23;17.45;;;8.23;;
26181;SDS011;13927;51.534;11.866;2023-04-25T05:35:50;16.13;;;8.90;;
26181;SDS011;13927;51.534;11.866;2023-04-25T05:38:16;14.88;;;8.73;;
26181;SDS011;13927;51.534;11.866;2023-04-25T05:40:42;14.35;;;8.68;;
26181;SDS011;13927;51.534;11.866;2023-04-25T05:43:07;12.35;;;8.07;;
26181;SDS011;13927;51.534;11.866;2023-04-25T05:45:33;17.23;;;7.75;;
26181;SDS011;13927;51.534;11.866;2023-04-25T05:47:59;14.35;;;8.13;;
26181;SDS011;13927;51.534;11.866;2023-04-25T05:50:25;16.15;;;8.63;;
26181;SDS011;13927;51.534;11.866;2023-04-25T05:52:52;13.30;;;7.85;;
26181;SDS011;13927;51.534;11.866;2023-04-25T05:55:18;17.13;;;8.48;;
26181;SDS011;13927;51.534;11.866;2023-04-25T05:57:44;16.65;;;10.05;;
26181;SDS011;13927;51.534;11.866;2023-04-25T06:00:14;16.65;;;8.77;;
26181;SDS011;13927;51.534;11.866;2023-04-25T06:02:41;15.32;;;8.77;;
26181;SDS011;13927;51.534;11.866;2023-04-25T06:05:07;15.40;;;8.82;;
26181;SDS011;13927;51.534;11.866;2023-04-25T06:07:34;14.07;;;8.77;;
26181;SDS011;13927;51.534;11.866;2023-04-25T06:10:00;14.80;;;8.57;;
26181;SDS011;13927;51.534;11.866;2023-04-25T06:12:26;17.20;;;9.35;;
26181;SDS011;13927;51.534;11.866;2023-04-25T06:14:52;12.50;;;8.57;;
26181;SDS011;13927;51.534;11.866;2023-04-25T06:17:18;13.00;;;8.65;;
26181;SDS011;13927;51.534;11.866;2023-04-25T06:19:44;12.82;;;7.65;;
26181;SDS011;13927;51.534;11.866;2023-04-25T06:22:10;12.85;;;8.38;;
26181;SDS011;13927;51.534;11.866;2023-04-25T06:24:36;14.75;;;8.77;;
26181;SDS011;13927;51.534;11.866;2023-04-25T06:27:02;18.58;;;9.18;;
26181;SDS011;13927;51.534;11.866;2023-04-25T06:29:28;14.85;;;8.65;;
26181;SDS011;13927;51.534;11.866;2023-04-25T06:31:54;16.77;;;8.65;;
26181;SDS011;13927;51.534;11.866;2023-04-25T06:34:21;16.40;;;8.93;;
26181;SDS011;13927;51.534;11.866;2023-04-25T06:36:46;12.93;;;8.85;;
26181;SDS011;13927;51.534;11.866;2023-04-25T06:39:12;17.58;;;9.35;;
26181;SDS011;13927;51.534;11.866;2023-04-25T06:41:38;15.52;;;8.88;;
26181;SDS011;13927;51.534;11.866;2023-04-25T06:44:04;10.48;;;6.95;;
26181;SDS011;13927;51.534;11.866;2023-04-25T06:46:30;9.88;;;4.03;;
26181;SDS011;13927;51.534;11.866;2023-04-25T06:48:55;9.10;;;3.35;;
26181;SDS011;13927;51.534;11.866;2023-04-25T06:51:21;6.70;;;3.30;;
26181;SDS011;13927;51.534;11.866;2023-04-25T06:53:49;7.53;;;2.75;;
26181;SDS011;13927;51.534;11.866;2023-04-25T06:56:15;8.60;;;3.15;;
26181;SDS011;13927;51.534;11.866;2023-04-25T06:58:41;10.43;;;3.22;;
26181;SDS011;13927;51.534;11.866;2023-04-25T07:01:07;11.30;;;2.78;;
26181;SDS011;13927;51.534;11.866;2023-04-25T07:03:32;9.20;;;3.05;;
26181;SDS011;13927;51.534;11.866;2023-04-25T07:05:58;6.07;;;2.80;;
26181;SDS011;13927;51.534;11.866;2023-04-25T07:08:25;5.15;;;2.50;;
26181;SDS011;13927;51.534;11.866;2023-04-25T07:10:51;9.80;;;3.60;;
26181;SDS011;13927;51.534;11.866;2023-04-25T07:13:16;7.43;;;2.60;;
26181;SDS011;13927;51.534;11.866;2023-04-25T07:15:43;6.22;;;2.38;;
26181;SDS011;13927;51.534;11.866;2023-04-25T07:18:09;12.45;;;3.08;;
26181;SDS011;13927;51.534;11.866;2023-04-25T07:20:35;8.85;;;3.22;;
26181;SDS011;13927;51.534;11.866;2023-04-25T07:23:02;20.67;;;6.57;;
26181;SDS011;13927;51.534;11.866;2023-04-25T07:25:28;9.68;;;3.20;;
26181;SDS011;13927;51.534;11.866;2023-04-25T07:27:55;12.02;;;3.33;;
26181;SDS011;13927;51.534;11.866;2023-04-25T07:30:21;14.93;;;4.72;;
26181;SDS011;13927;51.534;11.866;2023-04-25T07:32:48;8.57;;;3.33;;
26181;SDS011;13927;51.534;11.866;2023-04-25T07:35:16;14.57;;;3.53;;
26181;SDS011;13927;51.534;11.866;2023-04-25T07:37:42;12.77;;;3.65;;
26181;SDS011;13927;51.534;11.866;2023-04-25T07:40:08;9.85;;;3.58;;
26181;SDS011;13927;51.534;11.866;2023-04-25T07:42:34;11.25;;;3.10;;
26181;SDS011;13927;51.534;11.866;2023-04-25T07:45:01;8.55;;;3.15;;
26181;SDS011;13927;51.534;11.866;2023-04-25T07:47:28;13.30;;;3.15;;
26181;SDS011;13927;51.534;11.866;2023-04-25T07:49:54;10.07;;;2.72;;
26181;SDS011;13927;51.534;11.866;2023-04-25T07:52:21;11.23;;;3.30;;
26181;SDS011;13927;51.534;11.866;2023-04-25T07:54:47;10.90;;;2.90;;
26181;SDS011;13927;51.534;11.866;2023-04-25T07:57:13;12.93;;;3.20;;
26181;SDS011;13927;51.534;11.866;2023-04-25T07:59:39;11.32;;;3.45;;
26181;SDS011;13927;51.534;11.866;2023-04-25T08:02:05;14.60;;;3.30;;
26181;SDS011;13927;51.534;11.866;2023-04-25T08:04:32;10.43;;;3.42;;
26181;SDS011;13927;51.534;11.866;2023-04-25T08:06:58;16.15;;;3.13;;
26181;SDS011;13927;51.534;11.866;2023-04-25T08:09:24;16.65;;;3.85;;
26181;SDS011;13927;51.534;11.866;2023-04-25T08:11:50;15.10;;;3.90;;
26181;SDS011;13927;51.534;11.866;2023-04-25T08:14:16;12.05;;;3.60;;
26181;SDS011;13927;51.534;11.866;2023-04-25T08:16:42;14.10;;;3.42;;
26181;SDS011;13927;51.534;11.866;2023-04-25T08:19:09;17.30;;;4.32;;
26181;SDS011;13927;51.534;11.866;2023-04-25T08:21:36;11.68;;;3.58;;
26181;SDS011;13927;51.534;11.866;2023-04-25T08:24:02;13.07;;;3.40;;
26181;SDS011;13927;51.534;11.866;2023-04-25T08:26:29;14.45;;;3.92;;
26181;SDS011;13927;51.534;11.866;2023-04-25T08:28:55;14.63;;;4.05;;
26181;SDS011;13927;51.534;11.866;2023-04-25T08:31:22;26.65;;;7.75;;
26181;SDS011;13927;51.534;11.866;2023-04-25T08:33:47;13.93;;;4.38;;
26181;SDS011;13927;51.534;11.866;2023-04-25T08:36:14;10.23;;;4.63;;
26181;SDS011;13927;51.534;11.866;2023-04-25T08:38:40;9.93;;;4.53;;
26181;SDS011;13927;51.534;11.866;2023-04-25T08:41:06;16.13;;;5.78;;
26181;SDS011;13927;51.534;11.866;2023-04-25T08:43:32;14.85;;;5.55;;
26181;SDS011;13927;51.534;11.866;2023-04-25T08:46:00;17.17;;;5.18;;
26181;SDS011;13927;51.534;11.866;2023-04-25T08:48:27;17.65;;;5.43;;
26181;SDS011;13927;51.534;11.866;2023-04-25T08:50:54;14.57;;;4.93;;
26181;SDS011;13927;51.534;11.866;2023-04-25T08:53:24;18.35;;;5.70;;
26181;SDS011;13927;51.534;11.866;2023-04-25T08:55:53;16.67;;;6.35;;
26181;SDS011;13927;51.534;11.866;2023-04-25T08:58:21;15.20;;;6.00;;
26181;SDS011;13927;51.534;11.866;2023-04-25T09:00:49;11.63;;;5.35;;
26181;SDS011;13927;51.534;11.866;2023-04-25T09:03:17;18.25;;;5.65;;
26181;SDS011;13927;51.534;11.866;2023-04-25T09:05:44;15.27;;;5.63;;
26181;SDS011;13927;51.534;11.866;2023-04-25T09:08:10;15.35;;;5.50;;
26181;SDS011;13927;51.534;11.866;2023-04-25T09:10:37;13.98;;;7.43;;
26181;SDS011;13927;51.534;11.866;2023-04-25T09:13:10;16.10;;;6.32;;
26181;SDS011;13927;51.534;11.866;2023-04-25T09:15:49;22.27;;;6.78;;
26181;SDS011;13927;51.534;11.866;2023-04-25T09:21:07;17.42;;;6.45;;
26181;SDS011;13927;51.534;11.866;2023-04-25T09:23:40;13.38;;;6.50;;
26181;SDS011;13927;51.534;11.866;2023-04-25T09:26:10;14.48;;;5.75;;
26181;SDS011;13927;51.534;11.866;2023-04-25T09:28:44;14.10;;;5.45;;
26181;SDS011;13927;51.534;11.866;2023-04-25T09:31:20;16.65;;;4.95;;
26181;SDS011;13927;51.534;11.866;2023-04-25T09:33:50;17.67;;;5.68;;
26181;SDS011;13927;51.534;11.866;2023-04-25T09:36:25;15.35;;;4.80;;
26181;SDS011;13927;51.534;11.866;2023-04-25T09:38:52;15.25;;;5.53;;
26181;SDS011;13927;51.534;11.866;2023-04-25T09:41:25;12.13;;;5.50;;
26181;SDS011;13927;51.534;11.866;2023-04-25T09:46:23;14.45;;;4.05;;
26181;SDS011;13927;51.534;11.866;2023-04-25T09:48:50;15.02;;;4.68;;
26181;SDS011;13927;51.534;11.866;2023-04-25T09:51:18;16.13;;;4.80;;
26181;SDS011;13927;51.534;11.866;2023-04-25T09:53:45;15.75;;;5.28;;
26181;SDS011;13927;51.534;11.866;2023-04-25T09:56:15;15.30;;;4.00;;
26181;SDS011;13927;51.534;11.866;2023-04-25T09:58:41;14.30;;;4.45;;
26181;SDS011;13927;51.534;11.866;2023-04-25T10:01:11;33.53;;;5.78;;
26181;SDS011;13927;51.534;11.866;2023-04-25T10:03:39;16.45;;;4.55;;
26181;SDS011;13927;51.534;11.866;2023-04-25T10:06:13;15.00;;;5.68;;
26181;SDS011;13927;51.534;11.866;2023-04-25T10:08:44;12.43;;;5.35;;
26181;SDS011;13927;51.534;11.866;2023-04-25T10:11:16;17.77;;;5.75;;
26181;SDS011;13927;51.534;11.866;2023-04-25T10:13:43;15.20;;;5.60;;
26181;SDS011;13927;51.534;11.866;2023-04-25T10:16:10;16.55;;;5.60;;
26181;SDS011;13927;51.534;11.866;2023-04-25T10:18:36;14.27;;;5.25;;
26181;SDS011;13927;51.534;11.866;2023-04-25T10:21:04;16.33;;;5.45;;
26181;SDS011;13927;51.534;11.866;2023-04-25T10:23:31;16.10;;;4.68;;
26181;SDS011;13927;51.534;11.866;2023-04-25T10:25:59;11.85;;;4.53;;
26181;SDS011;13927;51.534;11.866;2023-04-25T10:28:26;15.55;;;4.15;;
26181;SDS011;13927;51.534;11.866;2023-04-25T10:31:03;16.60;;;4.07;;
26181;SDS011;13927;51.534;11.866;2023-04-25T10:33:39;8.57;;;3.50;;
26181;SDS011;13927;51.534;11.866;2023-04-25T10:36:09;11.55;;;2.60;;
26181;SDS011;13927;51.534;11.866;2023-04-25T10:38:44;8.40;;;2.13;;
26181;SDS011;13927;51.534;11.866;2023-04-25T10:41:13;15.07;;;2.40;;
26181;SDS011;13927;51.534;11.866;2023-04-25T10:43:41;9.32;;;3.05;;
26181;SDS011;13927;51.534;11.866;2023-04-25T10:46:16;10.88;;;2.53;;
26181;SDS011;13927;51.534;11.866;2023-04-25T10:48:54;15.00;;;2.67;;
26181;SDS011;13927;51.534;11.866;2023-04-25T10:51:24;10.52;;;3.28;;
26181;SDS011;13927;51.534;11.866;2023-04-25T10:56:21;13.70;;;3.65;;
26181;SDS011;13927;51.534;11.866;2023-04-25T11:01:47;8.38;;;2.40;;
26181;SDS011;13927;51.534;11.866;2023-04-25T11:04:20;4.85;;;2.00;;
26181;SDS011;13927;51.534;11.866;2023-04-25T11:07:02;10.75;;;2.17;;
26181;SDS011;13927;51.534;11.866;2023-04-25T11:09:48;11.50;;;2.75;;
26181;SDS011;13927;51.534;11.866;2023-04-25T11:12:15;8.90;;;2.17;;
26181;SDS011;13927;51.534;11.866;2023-04-25T11:14:42;13.15;;;2.88;;
26181;SDS011;13927;51.534;11.866;2023-04-25T11:17:08;9.75;;;3.53;;
26181;SDS011;13927;51.534;11.866;2023-04-25T11:19:36;10.23;;;2.80;;
26181;SDS011;13927;51.534;11.866;2023-04-25T11:22:02;9.98;;;2.40;;
26181;SDS011;13927;51.534;11.866;2023-04-25T11:24:31;14.65;;;2.67;;
26181;SDS011;13927;51.534;11.866;2023-04-25T11:27:00;10.80;;;2.53;;
26181;SDS011;13927;51.534;11.866;2023-04-25T11:29:33;8.23;;;2.38;;
26181;SDS011;13927;51.534;11.866;2023-04-25T11:32:00;11.77;;;2.88;;
26181;SDS011;13927;51.534;11.866;2023-04-25T11:34:27;8.80;;;2.20;;
26181;SDS011;13927;51.534;11.866;2023-04-25T11:36:58;8.75;;;2.30;;
26181;SDS011;13927;51.534;11.866;2023-04-25T11:39:25;12.05;;;2.97;;
26181;SDS011;13927;51.534;11.866;2023-04-25T11:41:53;8.98;;;2.00;;
26181;SDS011;13927;51.534;11.866;2023-04-25T11:44:19;9.65;;;2.25;;
26181;SDS011;13927;51.534;11.866;2023-04-25T11:46:47;7.10;;;2.40;;
26181;SDS011;13927;51.534;11.866;2023-04-25T11:49:16;7.35;;;2.28;;
26181;SDS011;13927;51.534;11.866;2023-04-25T11:51:44;6.13;;;2.33;;
26181;SDS011;13927;51.534;11.866;2023-04-25T11:54:12;14.63;;;3.13;;
26181;SDS011;13927;51.534;11.866;2023-04-25T11:56:41;5.97;;;2.08;;
26181;SDS011;13927;51.534;11.866;2023-04-25T11:59:11;8.57;;;2.10;;
26181;SDS011;13927;51.534;11.866;2023-04-25T12:01:38;8.55;;;1.73;;
26181;SDS011;13927;51.534;11.866;2023-04-25T12:04:14;6.38;;;1.60;;
26181;SDS011;13927;51.534;11.866;2023-04-25T12:06:42;4.65;;;1.60;;
26181;SDS011;13927;51.534;11.866;2023-04-25T12:14:22;4.65;;;1.58;;
26181;SDS011;13927;51.534;11.866;2023-04-25T12:17:00;5.60;;;2.05;;
26181;SDS011;13927;51.534;11.866;2023-04-25T12:19:35;10.77;;;2.15;;
26181;SDS011;13927;51.534;11.866;2023-04-25T12:22:18;3.72;;;1.70;;
26181;SDS011;13927;51.534;11.866;2023-04-25T12:24:47;13.48;;;4.80;;
26181;SDS011;13927;51.534;11.866;2023-04-25T12:27:14;7.53;;;1.77;;
26181;SDS011;13927;51.534;11.866;2023-04-25T12:29:50;4.28;;;1.60;;
26181;SDS011;13927;51.534;11.866;2023-04-25T12:32:21;8.30;;;2.08;;
26181;SDS011;13927;51.534;11.866;2023-04-25T12:34:48;7.15;;;2.03;;
26181;SDS011;13927;51.534;11.866;2023-04-25T12:37:14;15.88;;;3.20;;
26181;SDS011;13927;51.534;11.866;2023-04-25T12:39:41;5.80;;;1.80;;
26181;SDS011;13927;51.534;11.866;2023-04-25T12:42:07;11.98;;;2.38;;
26181;SDS011;13927;51.534;11.866;2023-04-25T12:44:36;17.40;;;2.65;;
26181;SDS011;13927;51.534;11.866;2023-04-25T12:47:03;6.45;;;1.67;;
26181;SDS011;13927;51.534;11.866;2023-04-25T12:49:30;8.95;;;2.20;;
26181;SDS011;13927;51.534;11.866;2023-04-25T12:51:57;3.92;;;1.55;;
26181;SDS011;13927;51.534;11.866;2023-04-25T12:54:24;6.28;;;1.80;;
26181;SDS011;13927;51.534;11.866;2023-04-25T12:56:51;4.07;;;1.63;;
26181;SDS011;13927;51.534;11.866;2023-04-25T12:59:18;9.43;;;1.88;;
26181;SDS011;13927;51.534;11.866;2023-04-25T13:01:48;5.93;;;1.95;;
26181;SDS011;13927;51.534;11.866;2023-04-25T13:04:16;4.93;;;1.90;;
26181;SDS011;13927;51.534;11.866;2023-04-25T13:06:45;5.88;;;1.65;;
26181;SDS011;13927;51.534;11.866;2023-04-25T13:09:12;9.25;;;2.20;;
26181;SDS011;13927;51.534;11.866;2023-04-25T13:11:38;4.55;;;1.50;;
26181;SDS011;13927;51.534;11.866;2023-04-25T13:14:05;6.60;;;1.45;;
26181;SDS011;13927;51.534;11.866;2023-04-25T13:16:31;4.32;;;2.08;;
26181;SDS011;13927;51.534;11.866;2023-04-25T13:18:57;7.95;;;1.70;;
26181;SDS011;13927;51.534;11.866;2023-04-25T13:21:24;5.75;;;1.65;;
26181;SDS011;13927;51.534;11.866;2023-04-25T13:23:50;5.40;;;2.03;;
26181;SDS011;13927;51.534;11.866;2023-04-25T13:26:16;9.27;;;2.20;;
26181;SDS011;13927;51.534;11.866;2023-04-25T13:28:42;7.40;;;1.75;;
26181;SDS011;13927;51.534;11.866;2023-04-25T13:31:08;5.40;;;2.03;;
26181;SDS011;13927;51.534;11.866;2023-04-25T13:33:35;5.38;;;1.88;;
26181;SDS011;13927;51.534;11.866;2023-04-25T13:36:01;11.57;;;2.05;;
26181;SDS011;13927;51.534;11.866;2023-04-25T13:38:27;13.45;;;2.35;;
26181;SDS011;13927;51.534;11.866;2023-04-25T13:40:54;6.32;;;1.70;;
26181;SDS011;13927;51.534;11.866;2023-04-25T13:43:20;7.78;;;1.60;;
26181;SDS011;13927;51.534;11.866;2023-04-25T13:45:50;2.30;;;1.50;;
26181;SDS011;13927;51.534;11.866;2023-04-25T13:48:17;8.05;;;2.42;;
26181;SDS011;13927;51.534;11.866;2023-04-25T13:50:45;6.30;;;1.48;;
26181;SDS011;13927;51.534;11.866;2023-04-25T13:53:11;4.10;;;1.60;;
26181;SDS011;13927;51.534;11.866;2023-04-25T13:55:37;6.85;;;2.35;;
26181;SDS011;13927;51.534;11.866;2023-04-25T13:58:03;12.55;;;2.08;;
26181;SDS011;13927;51.534;11.866;2023-04-25T14:00:33;3.38;;;1.92;;
26181;SDS011;13927;51.534;11.866;2023-04-25T14:03:04;7.57;;;1.80;;
26181;SDS011;13927;51.534;11.866;2023-04-25T14:05:32;5.95;;;1.83;;
26181;SDS011;13927;51.534;11.866;2023-04-25T14:08:03;4.90;;;1.52;;
26181;SDS011;13927;51.534;11.866;2023-04-25T14:10:31;10.13;;;2.88;;
26181;SDS011;13927;51.534;11.866;2023-04-25T14:12:58;5.28;;;1.77;;
26181;SDS011;13927;51.534;11.866;2023-04-25T14:15:25;5.32;;;1.58;;
26181;SDS011;13927;51.534;11.866;2023-04-25T14:17:52;6.32;;;2.03;;
26181;SDS011;13927;51.534;11.866;2023-04-25T14:20:18;9.07;;;2.35;;
26181;SDS011;13927;51.534;11.866;2023-04-25T14:22:46;6.50;;;2.42;;
26181;SDS011;13927;51.534;11.866;2023-04-25T14:25:13;7.70;;;2.75;;
26181;SDS011;13927;51.534;11.866;2023-04-25T14:27:39;8.95;;;2.03;;
26181;SDS011;13927;51.534;11.866;2023-04-25T14:30:06;9.90;;;1.95;;
26181;SDS011;13927;51.534;11.866;2023-04-25T14:32:34;8.05;;;2.45;;
26181;SDS011;13927;51.534;11.866;2023-04-25T14:35:00;9.40;;;1.92;;
26181;SDS011;13927;51.534;11.866;2023-04-25T14:37:27;12.57;;;2.20;;
26181;SDS011;13927;51.534;11.866;2023-04-25T14:39:55;7.88;;;2.35;;
26181;SDS011;13927;51.534;11.866;2023-04-25T14:42:22;8.90;;;1.50;;